createdAt,value
2024-04-23T00:05:01.995Z,94.97
2024-04-23T00:10:08.563Z,95.57
2024-04-23T00:15:14.039Z,95.51
2024-04-23T00:20:22.059Z,94.83
2024-04-23T00:25:27.501Z,94.20
2024-04-23T00:30:32.959Z,96.79
2024-04-23T00:35:41.010Z,95.77
2024-04-23T00:40:46.661Z,95.23
2024-04-23T00:45:58.940Z,95.28
2024-04-23T00:51:07.501Z,95.90
2024-04-23T00:56:13.573Z,96.04
2024-04-23T01:01:19.164Z,95.43
2024-04-23T01:06:27.208Z,95.25
2024-04-23T01:11:32.715Z,95.50
2024-04-23T01:16:43.411Z,95.23
2024-04-23T01:21:57.973Z,95.60
2024-04-23T01:27:06.746Z,96.28
2024-04-23T01:32:12.937Z,96.64
2024-04-23T01:37:19.330Z,96.27
2024-04-23T01:42:27.792Z,96.35
2024-04-23T01:47:33.532Z,95.48
2024-04-23T01:52:39.072Z,95.98
2024-04-23T01:57:47.282Z,95.18
2024-04-23T02:02:54.137Z,95.68
2024-04-23T02:07:59.766Z,95.88
2024-04-23T02:13:09.238Z,94.58
2024-04-23T02:18:14.865Z,95.22
2024-04-23T02:23:20.388Z,95.25
2024-04-23T02:28:28.489Z,95.75
2024-04-23T02:33:34.058Z,95.10
2024-04-23T02:38:39.893Z,95.69
2024-04-23T02:43:47.997Z,95.57
2024-04-23T02:48:53.490Z,95.59
2024-04-23T02:53:58.923Z,95.56
2024-04-23T02:59:06.966Z,94.75
2024-04-23T03:04:12.842Z,95.12
2024-04-23T03:09:18.306Z,95.54
2024-04-23T03:14:26.396Z,95.67
2024-04-23T03:19:31.883Z,96.26
2024-04-23T03:24:38.892Z,96.04
2024-04-23T03:29:47.204Z,96.04
2024-04-23T03:34:52.752Z,97.13
2024-04-23T03:39:58.243Z,97.13
2024-04-23T03:45:06.505Z,96.39
2024-04-23T03:50:11.995Z,96.60
2024-04-23T03:55:17.620Z,97.28
2024-04-23T04:00:25.721Z,97.16
2024-04-23T04:05:47.422Z,97.66
2024-04-23T04:10:53.017Z,96.88
2024-04-23T04:16:01.108Z,96.91
2024-04-23T04:21:06.760Z,96.82
2024-04-23T04:26:13.449Z,96.45
2024-04-23T04:31:21.565Z,96.28
2024-04-23T04:36:27.052Z,96.29
2024-04-23T04:41:32.534Z,96.92
2024-04-23T04:46:40.923Z,97.08
2024-04-23T04:51:46.441Z,97.47
2024-04-23T04:56:51.914Z,96.32
2024-04-23T05:02:00.247Z,95.93
2024-04-23T05:07:05.733Z,96.18
2024-04-23T05:12:11.399Z,95.17
2024-04-23T05:17:20.482Z,95.43
2024-04-23T05:22:26.873Z,94.20
2024-04-23T05:27:32.339Z,92.42
2024-04-23T05:32:52.676Z,92.39
2024-04-23T05:37:58.262Z,89.85
2024-04-23T05:43:03.814Z,86.24
2024-04-23T05:49:05.243Z,77.76
2024-04-23T05:55:07.313Z,71.31
2024-04-23T06:00:15.856Z,74.94
2024-04-23T06:05:21.483Z,75.26
2024-04-23T06:10:27.066Z,75.87
2024-04-23T06:15:35.127Z,77.70
2024-04-23T06:20:40.629Z,75.72
2024-04-23T06:25:46.211Z,75.09
2024-04-23T06:30:54.445Z,73.89
2024-04-23T06:35:59.944Z,69.52
2024-04-23T06:41:05.469Z,68.02
2024-04-23T06:46:13.579Z,66.30
2024-04-23T06:51:19.062Z,61.55
2024-04-23T06:56:24.563Z,59.55
2024-04-23T07:01:32.991Z,58.91
2024-04-23T07:06:38.530Z,54.27
2024-04-23T07:11:44.046Z,52.23
2024-04-23T07:16:52.248Z,48.46
2024-04-23T07:21:57.822Z,46.86
2024-04-23T07:27:03.260Z,45.34
2024-04-23T07:32:14.650Z,46.84
2024-04-23T07:37:20.547Z,42.84
2024-04-23T07:42:26.072Z,44.61
2024-04-23T07:47:34.585Z,45.45
2024-04-23T07:52:40.794Z,46.57
2024-04-23T07:57:48.078Z,46.55
2024-04-23T08:03:00.472Z,47.05
2024-04-23T08:08:06.148Z,46.74
2024-04-23T08:13:11.637Z,47.65
2024-04-23T08:18:19.761Z,45.01
2024-04-23T08:23:25.259Z,44.14
2024-04-23T08:28:30.767Z,44.65
2024-04-23T08:33:38.958Z,47.00
2024-04-23T08:38:44.464Z,46.72
2024-04-23T08:43:55.923Z,46.48
2024-04-23T08:49:05.154Z,45.88
2024-04-23T08:54:10.942Z,44.04
2024-04-23T08:59:18.685Z,45.34
2024-04-23T09:04:27.529Z,45.95
2024-04-23T09:09:33.354Z,44.39
2024-04-23T09:14:38.836Z,46.20
2024-04-23T09:19:47.506Z,43.98
2024-04-23T09:24:53.036Z,44.77
2024-04-23T09:29:58.804Z,46.17
2024-04-23T09:35:08.375Z,42.75
2024-04-23T09:40:14.559Z,41.96
2024-04-23T09:45:20.222Z,42.84
2024-04-23T09:50:34.513Z,45.09
2024-04-23T09:55:40.065Z,41.07
2024-04-23T10:00:45.785Z,40.68
2024-04-23T10:05:54.965Z,41.71
2024-04-23T10:11:02.230Z,42.13
2024-04-23T10:16:14.896Z,42.63
2024-04-23T10:21:29.614Z,41.86
2024-04-23T10:26:35.988Z,41.08
2024-04-23T10:31:41.527Z,42.08
2024-04-23T10:36:52.413Z,42.34
2024-04-23T10:41:58.651Z,42.68
2024-04-23T10:47:04.322Z,42.08
2024-04-23T10:52:12.932Z,42.30
2024-04-23T10:57:18.854Z,40.73
2024-04-23T11:02:30.074Z,44.78
2024-04-23T11:07:38.266Z,40.40
2024-04-23T11:12:49.816Z,40.60
2024-04-23T11:17:56.772Z,41.34
2024-04-23T11:23:10.466Z,40.33
2024-04-23T11:28:16.580Z,41.52
2024-04-23T11:33:23.306Z,40.80
2024-04-23T11:38:43.458Z,43.46
2024-04-23T11:43:49.786Z,40.20
2024-04-23T11:48:58.071Z,41.13
2024-04-23T11:54:06.236Z,43.02
2024-04-23T11:59:11.739Z,42.71
2024-04-23T12:04:19.913Z,43.00
2024-04-23T12:09:28.478Z,41.19
2024-04-23T12:14:36.176Z,41.73
2024-04-23T12:19:43.505Z,42.70
2024-04-23T12:24:52.911Z,43.03
2024-04-23T12:30:10.650Z,42.35
2024-04-23T12:35:16.319Z,42.29
2024-04-23T12:40:24.692Z,42.13
2024-04-23T12:45:30.335Z,42.46
2024-04-23T12:50:35.949Z,42.41
2024-04-23T12:55:44.615Z,41.93
2024-04-23T13:00:50.195Z,42.63
2024-04-23T13:05:57.023Z,42.18
2024-04-23T13:11:05.285Z,42.40
2024-04-23T13:16:11.212Z,41.71
2024-04-23T13:21:16.736Z,41.43
2024-04-23T13:26:24.861Z,42.27
2024-04-23T13:31:30.360Z,43.46
2024-04-23T13:36:36.785Z,42.38
2024-04-23T13:41:44.857Z,43.09
2024-04-23T13:46:50.380Z,44.29
2024-04-23T13:51:55.836Z,46.16
2024-04-23T13:57:04.720Z,45.59
2024-04-23T14:02:13.298Z,44.17
2024-04-23T14:07:20.985Z,45.46
2024-04-23T14:12:29.966Z,44.45
2024-04-23T14:17:36.387Z,45.86
2024-04-23T14:22:41.823Z,47.04
2024-04-23T14:27:49.866Z,47.14
2024-04-23T14:32:55.332Z,45.74
2024-04-23T14:38:00.802Z,46.13
2024-04-23T14:43:08.826Z,46.19
2024-04-23T14:48:14.446Z,46.48
2024-04-23T14:53:22.127Z,47.16
2024-04-23T14:58:31.176Z,47.74
2024-04-23T15:03:36.666Z,47.91
2024-04-23T15:08:44.165Z,46.51
2024-04-23T15:13:52.267Z,47.65
2024-04-23T15:18:57.964Z,47.36
2024-04-23T15:24:03.517Z,48.04
2024-04-23T15:29:11.694Z,47.00
2024-04-23T15:34:17.192Z,47.76
2024-04-23T15:39:22.865Z,48.21
2024-04-23T15:44:31.045Z,47.38
2024-04-23T15:49:36.783Z,47.54
2024-04-23T15:54:42.601Z,47.83
2024-04-23T15:59:50.734Z,48.75
2024-04-23T16:04:56.365Z,49.36
2024-04-23T16:10:01.950Z,48.50
2024-04-23T16:15:11.194Z,48.94
2024-04-23T16:20:16.857Z,48.49
2024-04-23T16:25:22.396Z,50.02
2024-04-23T16:30:30.446Z,49.66
2024-04-23T16:35:38.415Z,49.92
2024-04-23T16:40:44.027Z,49.69
2024-04-23T16:45:52.665Z,50.36
2024-04-23T16:50:58.435Z,51.06
2024-04-23T16:56:05.151Z,52.34
2024-04-23T17:01:13.766Z,55.60
2024-04-23T17:06:19.563Z,54.66
2024-04-23T17:11:25.546Z,54.92
2024-04-23T17:16:33.750Z,55.29
2024-04-23T17:21:39.363Z,57.03
2024-04-23T17:26:44.856Z,58.05
2024-04-23T17:31:53.157Z,58.21
2024-04-23T17:36:58.696Z,59.41
2024-04-23T17:42:04.664Z,60.79
2024-04-23T17:47:13.820Z,61.88
2024-04-23T17:52:19.624Z,64.07
2024-04-23T17:57:25.166Z,62.22
2024-04-23T18:02:33.370Z,61.65
2024-04-23T18:07:39.061Z,62.04
2024-04-23T18:12:44.585Z,63.39
2024-04-23T18:17:56.697Z,64.26
2024-04-23T18:23:02.412Z,66.28
2024-04-23T18:28:08.878Z,67.51
2024-04-23T18:33:17.009Z,69.59
2024-04-23T18:38:23.651Z,69.72
2024-04-23T18:43:29.194Z,69.13
2024-04-23T18:48:37.409Z,70.85
2024-04-23T18:53:43.448Z,71.32
2024-04-23T18:58:49.066Z,73.11
2024-04-23T19:03:57.427Z,73.51
2024-04-23T19:09:02.994Z,75.13
2024-04-23T19:14:14.938Z,76.18
2024-04-23T19:19:25.295Z,76.18
2024-04-23T19:24:30.937Z,76.52
2024-04-23T19:29:39.210Z,75.90
2024-04-23T19:34:48.207Z,77.01
2024-04-23T19:39:53.682Z,77.53
2024-04-23T19:44:59.192Z,79.36
2024-04-23T19:50:08.032Z,79.24
2024-04-23T19:55:14.613Z,76.99
2024-04-23T20:00:25.400Z,78.29
2024-04-23T20:05:33.571Z,78.83
2024-04-23T20:10:39.082Z,80.19
2024-04-23T20:15:44.563Z,80.55
2024-04-23T20:20:52.581Z,80.88
2024-04-23T20:25:58.076Z,81.41
2024-04-23T20:31:04.398Z,81.31
2024-04-23T20:36:15.261Z,81.96
2024-04-23T20:41:21.041Z,82.32
2024-04-23T20:46:26.542Z,82.68
2024-04-23T20:51:34.742Z,82.35
2024-04-23T20:56:40.406Z,83.10
2024-04-23T21:01:45.849Z,83.33
2024-04-23T21:06:53.887Z,83.10
2024-04-23T21:11:59.453Z,84.50
2024-04-23T21:17:05.120Z,84.72
2024-04-23T21:22:13.175Z,84.88
2024-04-23T21:27:18.603Z,85.82
2024-04-23T21:32:24.749Z,85.72
2024-04-23T21:37:32.848Z,85.41
2024-04-23T21:42:41.657Z,85.60
2024-04-23T21:47:47.875Z,87.04
2024-04-23T21:53:01.639Z,87.30
2024-04-23T21:58:07.532Z,86.95
2024-04-23T22:03:13.000Z,87.98
2024-04-23T22:08:21.302Z,87.85
2024-04-23T22:13:27.072Z,88.97
2024-04-23T22:18:32.645Z,89.99
2024-04-23T22:23:40.773Z,89.88
2024-04-23T22:28:46.204Z,89.82
2024-04-23T22:33:51.871Z,90.16
2024-04-23T22:39:00.015Z,90.52
2024-04-23T22:44:05.483Z,89.40
2024-04-23T22:49:10.901Z,89.88
2024-04-23T22:54:19.661Z,90.74
2024-04-23T22:59:25.235Z,91.43
2024-04-23T23:04:30.764Z,91.78
2024-04-23T23:09:38.920Z,90.82
2024-04-23T23:14:44.386Z,90.58
2024-04-23T23:19:49.894Z,91.98
2024-04-23T23:24:58.400Z,93.11
2024-04-23T23:30:03.908Z,93.14
2024-04-23T23:35:09.498Z,93.17
2024-04-23T23:40:17.727Z,93.96
2024-04-23T23:45:25.493Z,92.82
2024-04-23T23:50:32.341Z,92.42
2024-04-23T23:55:40.475Z,92.54
